Terminal Aerodrome Forecast
Issued by NWS

Home | Current Version | Previous Version | Text Only | Print | Product List | Glossary On
Versions: 1 2 3 4 5 6 7 8 9 10 11 12 13 14 15 16 17 18 19 20
000
FTUS41 KPBZ 022300
TAFBVI
TAF
KBVI 022321Z 0300/0324 27008KT P6SM BKN035
     FM030900 00000KT 3SM BR SCT250
     FM031300 23004KT P6SM SCT040
      AMD NOT SKED 0301/0311=

USA.gov is the U.S. government's official web portal to all federal, state and local government web resources and services.